Time;durP1;ratioP1;P1;durP2;ratioP2;P2;SDS_P1;SDS_P2;PMS_P1;PMS_P2;Temp;Humidity;BMP_temperature;BMP_pressure;BME280_temperature;BME280_humidity;BME280_pressure;Samples;Min_cycle;Max_cycle;Signal;HPM_P1;HPM_P2
2022/01/03 00:01:20;;;;;;;12.88;12.07;;;8.30;99.90;;;;;;4164016;28;20038;-56
2022/01/03 00:03:22;;;;;;;12.18;11.30;;;8.20;99.90;;;;;;4161340;28;20034;-55
2022/01/03 00:05:25;;;;;;;12.18;11.57;;;8.20;99.90;;;;;;4163535;28;20061;-57
2022/01/03 00:07:27;;;;;;;12.10;11.07;;;8.20;99.90;;;;;;4160779;28;20489;-57
2022/01/03 00:09:30;;;;;;;12.80;12.18;;;8.20;99.90;;;;;;4159103;28;20041;-57
2022/01/03 00:11:33;;;;;;;13.57;12.75;;;8.20;99.90;;;;;;4162992;28;20037;-57
2022/01/03 00:13:36;;;;;;;11.63;11.10;;;8.20;99.90;;;;;;4163890;28;21210;-58
2022/01/03 00:15:39;;;;;;;12.82;11.63;;;8.20;99.90;;;;;;4159314;28;20135;-58
2022/01/03 00:17:42;;;;;;;12.57;11.77;;;8.20;99.90;;;;;;4154418;28;20065;-57
2022/01/03 00:19:44;;;;;;;13.75;12.75;;;8.20;99.90;;;;;;4163974;28;20057;-57
2022/01/03 00:21:52;;;;;;;13.10;12.30;;;8.20;99.90;;;;;;4161346;28;20037;-57
2022/01/03 00:24:06;;;;;;;12.82;12.05;;;8.20;99.90;;;;;;4163304;28;20127;-57
2022/01/03 00:26:09;;;;;;;12.57;11.60;;;8.20;99.90;;;;;;4162622;28;20277;-57
2022/01/03 00:28:17;;;;;;;11.10;10.23;;;8.20;99.90;;;;;;4164195;28;20497;-57
2022/01/03 00:30:21;;;;;;;11.18;10.63;;;8.20;99.90;;;;;;4161210;28;20669;-57
2022/01/03 00:32:26;;;;;;;11.45;10.65;;;8.30;99.90;;;;;;4162778;28;20140;-58
2022/01/03 00:34:33;;;;;;;12.23;11.32;;;8.20;99.90;;;;;;4160936;28;20045;-57
2022/01/03 00:36:36;;;;;;;9.57;9.20;;;8.30;99.90;;;;;;4163300;28;20069;-57
2022/01/03 00:38:38;;;;;;;13.32;12.50;;;8.30;99.90;;;;;;4162097;28;20540;-57
2022/01/03 00:40:40;;;;;;;10.48;9.98;;;8.20;99.90;;;;;;4164599;28;20033;-57
2022/01/03 00:42:43;;;;;;;10.40;9.98;;;8.30;99.90;;;;;;4162781;28;20045;-57
2022/01/03 00:44:46;;;;;;;9.23;8.82;;;8.20;99.90;;;;;;4164070;28;20064;-57
2022/01/03 00:46:48;;;;;;;11.18;10.57;;;8.20;99.90;;;;;;4162970;28;20125;-57
2022/01/03 00:48:53;;;;;;;10.75;10.05;;;8.20;99.90;;;;;;4162300;28;20099;-57
2022/01/03 00:50:55;;;;;;;12.30;11.48;;;8.20;99.90;;;;;;4160685;28;20069;-57
2022/01/03 00:52:57;;;;;;;11.93;11.20;;;8.20;99.90;;;;;;4160059;28;20072;-58
2022/01/03 00:54:59;;;;;;;10.30;9.85;;;8.20;99.90;;;;;;4162692;28;20033;-57
2022/01/03 00:57:07;;;;;;;11.93;11.18;;;8.20;99.90;;;;;;4163368;28;20486;-57
2022/01/03 00:59:22;;;;;;;12.75;11.95;;;8.20;99.90;;;;;;4162167;28;20038;-57
2022/01/03 01:01:26;;;;;;;12.55;11.75;;;8.20;99.90;;;;;;4162466;28;20866;-57
2022/01/03 01:03:36;;;;;;;13.15;12.45;;;8.20;99.90;;;;;;4159488;28;20124;-57
2022/01/03 01:05:43;;;;;;;12.82;11.95;;;8.20;99.90;;;;;;4156767;28;20038;-58
2022/01/03 01:07:48;;;;;;;12.48;11.75;;;8.20;99.90;;;;;;4160528;28;20044;-57
2022/01/03 01:09:51;;;;;;;11.68;11.00;;;8.20;99.90;;;;;;4163528;28;20045;-58
2022/01/03 01:11:56;;;;;;;13.38;12.50;;;8.20;99.90;;;;;;4159389;28;20049;-57
2022/01/03 01:13:59;;;;;;;13.43;12.27;;;8.20;99.90;;;;;;4161268;28;20069;-57
2022/01/03 01:16:04;;;;;;;17.95;16.23;;;8.20;99.90;;;;;;4162333;28;20056;-56
2022/01/03 01:18:07;;;;;;;16.58;15.30;;;8.20;99.90;;;;;;4159795;28;20037;-57
2022/01/03 01:20:10;;;;;;;;;;;8.20;99.90;;;;;;4163161;28;20112;-57
2022/01/03 01:22:13;;;;;;;11.88;11.20;;;8.20;99.90;;;;;;4161402;28;20354;-57
2022/01/03 01:24:16;;;;;;;13.45;12.25;;;8.20;99.90;;;;;;4162258;28;20033;-57
2022/01/03 01:28:42;;;;;;;11.98;11.27;;;8.20;99.90;;;;;;4163334;28;20041;-57
2022/01/03 01:30:44;;;;;;;11.48;10.68;;;8.20;99.90;;;;;;4161002;28;20486;-57
2022/01/03 01:32:50;;;;;;;;;;;8.20;99.90;;;;;;4163254;28;20045;-57
2022/01/03 01:34:53;;;;;;;11.95;11.35;;;8.20;99.90;;;;;;4161171;28;19956;-57
2022/01/03 01:36:57;;;;;;;11.80;11.20;;;8.20;99.90;;;;;;4162344;28;20076;-58
2022/01/03 01:39:04;;;;;;;11.65;10.98;;;8.20;99.90;;;;;;4158709;28;20048;-57
2022/01/03 01:41:08;;;;;;;13.82;13.00;;;8.20;99.90;;;;;;4161624;28;20042;-57
2022/01/03 01:43:12;;;;;;;11.63;11.02;;;8.20;99.90;;;;;;4159565;28;20067;-57
2022/01/03 01:45:19;;;;;;;13.30;12.63;;;8.20;99.90;;;;;;4162800;28;20030;-57
2022/01/03 01:47:24;;;;;;;12.43;11.57;;;8.20;99.90;;;;;;4158303;28;20045;-57
2022/01/03 01:49:26;;;;;;;12.48;11.43;;;8.20;99.90;;;;;;4162956;28;20038;-56
2022/01/03 01:51:35;;;;;;;12.55;11.40;;;8.10;99.90;;;;;;4160852;28;20482;-57
2022/01/03 01:53:44;;;;;;;12.10;11.40;;;8.20;99.90;;;;;;4162036;28;20128;-57
2022/01/03 01:55:50;;;;;;;12.43;11.63;;;8.20;99.90;;;;;;4160570;28;20125;-56
2022/01/03 01:58:10;;;;;;;13.38;12.43;;;8.20;99.90;;;;;;4161745;28;20077;-57
2022/01/03 02:00:14;;;;;;;12.68;11.85;;;8.10;99.90;;;;;;4159501;28;20482;-57
2022/01/03 02:02:24;;;;;;;11.90;11.00;;;8.10;99.90;;;;;;4162237;28;20042;-57
2022/01/03 02:04:57;;;;;;;13.55;12.75;;;8.10;99.90;;;;;;4162526;28;20025;-58
2022/01/03 02:07:38;;;;;;;13.00;11.93;;;8.10;99.90;;;;;;4160375;28;20060;-58
2022/01/03 02:09:55;;;;;;;13.45;12.63;;;8.20;99.90;;;;;;4161190;28;20089;-56
2022/01/03 02:11:58;;;;;;;14.25;13.15;;;8.20;99.90;;;;;;4160250;28;20037;-57
2022/01/03 02:14:00;;;;;;;14.75;13.75;;;8.20;99.90;;;;;;4162257;28;20402;-57
2022/01/03 02:16:05;;;;;;;13.70;12.70;;;8.10;99.90;;;;;;4160513;28;20762;-57
2022/01/03 02:18:07;;;;;;;13.23;12.32;;;8.10;99.90;;;;;;4160631;28;20580;-57
2022/01/03 02:20:11;;;;;;;14.40;13.45;;;8.10;99.90;;;;;;4161339;28;20040;-57
2022/01/03 02:22:13;;;;;;;13.07;12.20;;;8.10;99.90;;;;;;4155670;28;20116;-57
2022/01/03 02:24:15;;;;;;;12.73;11.90;;;8.20;99.90;;;;;;4159652;28;20401;-57
2022/01/03 02:26:17;;;;;;;12.75;11.93;;;8.20;99.90;;;;;;4162581;28;20065;-58
2022/01/03 02:28:22;;;;;;;12.77;11.98;;;8.10;99.90;;;;;;4159671;28;20048;-57
2022/01/03 02:30:28;;;;;;;11.75;11.20;;;8.10;99.90;;;;;;4162403;28;20053;-57
2022/01/03 02:32:30;;;;;;;11.75;11.05;;;8.20;99.90;;;;;;4159998;28;20088;-57
2022/01/03 02:34:32;;;;;;;12.05;11.48;;;8.10;99.90;;;;;;4161864;28;20076;-57
2022/01/03 02:36:36;;;;;;;;;;;8.20;99.90;;;;;;4161806;28;20034;-57
2022/01/03 02:38:38;;;;;;;11.50;10.90;;;8.10;99.90;;;;;;4125677;28;19930;-57
2022/01/03 02:40:41;;;;;;;12.65;11.57;;;8.20;99.90;;;;;;4160334;28;20116;-57
2022/01/03 02:42:44;;;;;;;12.82;12.07;;;8.10;99.90;;;;;;4161547;28;20141;-58
2022/01/03 02:44:47;;;;;;;12.65;11.75;;;8.20;99.90;;;;;;4157747;28;20034;-56
2022/01/03 02:46:49;;;;;;;12.10;11.45;;;8.10;99.90;;;;;;4146612;28;20049;-58
2022/01/03 02:48:51;;;;;;;11.55;10.85;;;8.10;99.90;;;;;;4161558;28;20116;-57
2022/01/03 02:50:54;;;;;;;11.75;11.07;;;8.20;99.90;;;;;;4160261;28;20099;-57
2022/01/03 02:52:57;;;;;;;;;;;8.10;99.90;;;;;;4161817;28;20039;-57
2022/01/03 02:55:00;;;;;;;;;;;8.10;99.90;;;;;;4160538;28;19978;-57
2022/01/03 02:57:02;;;;;;;13.43;12.48;;;8.10;99.90;;;;;;4161928;28;20028;-58
2022/01/03 02:59:12;;;;;;;13.02;12.13;;;8.10;99.90;;;;;;4160769;28;20537;-58
2022/01/03 03:01:14;;;;;;;11.65;10.98;;;8.10;99.90;;;;;;4161708;28;20052;-57
2022/01/03 03:03:18;;;;;;;12.32;11.43;;;8.10;99.90;;;;;;4160177;28;20514;-57
2022/01/03 03:05:20;;;;;;;10.60;10.02;;;8.10;99.90;;;;;;4161214;28;20037;-57
2022/01/03 03:07:24;;;;;;;9.73;9.20;;;8.10;99.90;;;;;;4160960;28;20065;-57
2022/01/03 03:09:26;;;;;;;9.95;9.65;;;8.10;99.90;;;;;;4161445;28;20037;-57
2022/01/03 03:11:28;;;;;;;9.43;9.13;;;8.20;99.90;;;;;;4158679;28;20894;-56
2022/01/03 03:13:30;;;;;;;10.10;9.70;;;8.20;99.90;;;;;;4168520;28;20094;-57
2022/01/03 03:15:33;;;;;;;9.38;8.95;;;8.20;99.90;;;;;;4169891;28;20136;-57
2022/01/03 03:17:39;;;;;;;9.95;9.43;;;8.20;99.90;;;;;;4160901;28;20041;-57
2022/01/03 03:20:01;;;;;;;10.23;9.50;;;8.20;99.90;;;;;;4159649;28;20037;-57
2022/01/03 03:22:03;;;;;;;9.60;9.15;;;8.20;99.90;;;;;;4160187;28;20030;-57
2022/01/03 03:24:05;;;;;;;10.30;9.82;;;8.20;99.90;;;;;;4158534;28;20033;-57
2022/01/03 03:26:09;;;;;;;11.52;10.77;;;8.20;99.90;;;;;;4162315;28;20038;-56
2022/01/03 03:28:15;;;;;;;12.30;10.82;;;8.20;99.90;;;;;;4158581;28;20037;-58
2022/01/03 03:30:23;;;;;;;10.52;9.93;;;8.20;99.90;;;;;;4161456;28;20041;-57
2022/01/03 03:32:27;;;;;;;11.07;10.38;;;8.20;99.90;;;;;;4159420;28;20045;-57
2022/01/03 03:34:29;;;;;;;11.07;10.57;;;8.20;99.90;;;;;;4160201;28;20053;-58
2022/01/03 03:36:32;;;;;;;;;;;8.10;99.90;;;;;;4159545;28;20049;-57
2022/01/03 03:38:34;;;;;;;9.40;8.90;;;8.10;99.90;;;;;;4158205;28;20027;-57
2022/01/03 03:40:37;;;;;;;11.38;10.73;;;8.20;99.90;;;;;;4157769;28;20069;-57
2022/01/03 03:42:39;;;;;;;;;;;8.10;99.90;;;;;;4161361;28;20072;-58
2022/01/03 03:44:41;;;;;;;12.05;11.05;;;8.10;99.90;;;;;;4158466;28;19980;-57
2022/01/03 03:46:43;;;;;;;11.93;11.20;;;8.10;99.90;;;;;;4176576;28;20110;-57
2022/01/03 03:48:46;;;;;;;11.15;10.45;;;8.10;99.90;;;;;;4161154;28;20088;-57
2022/01/03 03:50:48;;;;;;;12.45;11.63;;;8.10;99.90;;;;;;4157966;28;20465;-57
2022/01/03 03:52:50;;;;;;;;;;;8.10;99.90;;;;;;4160637;28;20485;-58
2022/01/03 03:54:52;;;;;;;10.05;9.60;;;8.10;99.90;;;;;;4157011;28;19925;-58
2022/01/03 03:56:57;;;;;;;11.10;10.18;;;8.10;99.90;;;;;;4159272;28;20048;-57
2022/01/03 03:58:59;;;;;;;9.40;8.88;;;8.10;99.90;;;;;;4145194;28;20030;-57
2022/01/03 04:01:01;;;;;;;9.30;8.65;;;8.10;99.90;;;;;;4156803;28;20038;-58
2022/01/03 04:03:11;;;;;;;9.63;9.20;;;8.10;99.90;;;;;;4145488;28;20041;-57
2022/01/03 04:05:14;;;;;;;9.43;9.10;;;8.10;99.90;;;;;;4158420;28;20116;-57
2022/01/03 04:07:16;;;;;;;9.35;9.05;;;8.20;99.90;;;;;;4161115;28;20065;-57
2022/01/03 04:09:18;;;;;;;9.10;8.68;;;8.20;99.90;;;;;;4159263;28;20053;-57
2022/01/03 04:11:21;;;;;;;8.05;7.85;;;8.10;99.90;;;;;;4160692;28;20052;-58
2022/01/03 04:13:23;;;;;;;;;;;8.20;99.90;;;;;;4158434;28;20609;-57
2022/01/03 04:15:25;;;;;;;8.95;8.65;;;8.20;99.90;;;;;;4161368;28;19961;-57
2022/01/03 04:17:27;;;;;;;7.35;7.15;;;8.20;99.90;;;;;;4159032;28;20069;-57
2022/01/03 04:19:29;;;;;;;10.27;9.75;;;8.20;99.90;;;;;;4160149;28;20555;-57
2022/01/03 04:21:31;;;;;;;9.43;8.93;;;8.10;99.90;;;;;;4160685;28;20517;-57
2022/01/03 04:23:33;;;;;;;10.13;9.70;;;8.10;99.90;;;;;;4165721;28;20505;-57
2022/01/03 04:25:35;;;;;;;11.73;11.00;;;8.10;99.90;;;;;;4162869;28;20154;-57
2022/01/03 04:27:38;;;;;;;11.35;10.55;;;8.10;99.90;;;;;;4163083;28;20402;-57
2022/01/03 04:29:40;;;;;;;;;;;8.10;99.90;;;;;;4163445;28;20041;-56
2022/01/03 04:31:42;;;;;;;10.65;10.05;;;8.10;99.90;;;;;;4162787;28;19956;-58
2022/01/03 04:33:44;;;;;;;11.88;11.20;;;8.00;99.90;;;;;;4162527;28;20095;-57
2022/01/03 04:35:46;;;;;;;10.38;9.75;;;8.10;99.90;;;;;;4163695;28;20073;-57
2022/01/03 04:37:48;;;;;;;12.95;11.80;;;8.10;99.90;;;;;;4163176;28;20033;-57
2022/01/03 04:39:50;;;;;;;12.20;11.27;;;8.00;99.90;;;;;;4162614;28;20144;-57
2022/01/03 04:41:52;;;;;;;11.20;10.65;;;8.00;99.90;;;;;;4162901;28;20037;-57
2022/01/03 04:43:54;;;;;;;12.38;11.57;;;8.00;99.90;;;;;;4161553;28;20038;-57
2022/01/03 04:45:56;;;;;;;11.30;10.60;;;8.00;99.90;;;;;;4163097;28;20071;-57
2022/01/03 04:47:58;;;;;;;11.63;10.60;;;8.00;99.90;;;;;;4161813;28;20037;-57
2022/01/03 04:50:00;;;;;;;11.30;10.50;;;8.00;99.90;;;;;;4164456;28;20103;-57
2022/01/03 04:52:02;;;;;;;10.52;10.15;;;8.00;99.90;;;;;;4160948;28;20104;-57
2022/01/03 04:54:05;;;;;;;9.15;8.85;;;8.00;99.90;;;;;;4161543;28;20498;-57
2022/01/03 04:56:09;;;;;;;9.48;9.07;;;8.10;99.90;;;;;;4159574;28;20096;-56
2022/01/03 04:58:11;;;;;;;9.15;8.70;;;8.10;99.90;;;;;;4157279;28;20034;-57
2022/01/03 05:00:14;;;;;;;6.65;6.45;;;8.10;99.90;;;;;;4149779;28;20062;-57
2022/01/03 05:02:16;;;;;;;;;;;8.10;99.90;;;;;;4163797;28;20065;-57
2022/01/03 05:04:18;;;;;;;7.18;6.88;;;8.10;99.90;;;;;;4162265;28;20016;-58
2022/01/03 05:06:20;;;;;;;7.57;7.38;;;8.20;99.90;;;;;;4157897;28;20108;-57
2022/01/03 05:08:22;;;;;;;7.68;7.47;;;8.20;99.90;;;;;;4156438;28;20065;-57
2022/01/03 05:10:26;;;;;;;7.43;7.22;;;8.20;99.90;;;;;;4162838;28;20044;-58
2022/01/03 05:12:27;;;;;;;7.70;7.50;;;8.20;99.90;;;;;;4160039;28;20565;-56
2022/01/03 05:14:30;;;;;;;7.13;6.93;;;8.30;99.90;;;;;;4163944;28;20041;-58
2022/01/03 05:16:32;;;;;;;;;;;8.20;99.90;;;;;;4160645;28;20056;-56
2022/01/03 05:18:34;;;;;;;8.30;7.90;;;8.30;99.90;;;;;;4162836;28;19929;-57
2022/01/03 05:20:36;;;;;;;9.23;8.82;;;8.20;99.90;;;;;;4159458;28;20062;-57
2022/01/03 05:22:39;;;;;;;8.43;8.13;;;8.20;99.90;;;;;;4163743;28;20120;-57
2022/01/03 05:24:41;;;;;;;;;;;8.20;99.90;;;;;;4160856;28;20033;-58
2022/01/03 05:26:43;;;;;;;9.15;8.43;;;8.20;99.90;;;;;;4163569;28;20708;-58
2022/01/03 05:28:47;;;;;;;9.20;8.55;;;8.20;99.90;;;;;;4161421;28;20041;-57
2022/01/03 05:30:49;;;;;;;9.65;9.05;;;8.20;99.90;;;;;;4155088;28;20414;-58
2022/01/03 05:32:51;;;;;;;8.23;7.93;;;8.20;99.90;;;;;;4153316;28;20059;-58
2022/01/03 05:34:53;;;;;;;10.27;9.77;;;8.10;99.90;;;;;;4162675;28;20045;-58
2022/01/03 05:36:55;;;;;;;8.48;8.13;;;8.10;99.90;;;;;;4160801;28;20451;-57
2022/01/03 05:38:57;;;;;;;8.93;8.55;;;8.10;99.90;;;;;;4163260;28;20041;-58
2022/01/03 05:40:59;;;;;;;9.05;8.77;;;8.10;99.90;;;;;;4160710;28;20418;-58
2022/01/03 05:43:02;;;;;;;8.70;8.48;;;8.10;99.90;;;;;;4163787;28;20099;-56
2022/01/03 05:45:04;;;;;;;9.43;9.10;;;8.10;99.90;;;;;;4160058;28;20029;-56
2022/01/03 05:47:07;;;;;;;;;;;8.20;99.90;;;;;;4163690;28;20033;-58
2022/01/03 05:49:11;;;;;;;8.57;8.20;;;8.10;99.90;;;;;;4159343;28;20012;-58
2022/01/03 05:51:13;;;;;;;7.88;7.50;;;8.20;99.90;;;;;;4163762;28;20413;-58
2022/01/03 05:53:15;;;;;;;9.63;9.02;;;8.20;99.90;;;;;;4159562;28;20060;-57
2022/01/03 05:55:19;;;;;;;9.95;9.25;;;8.20;99.90;;;;;;4162199;28;20104;-57
2022/01/03 05:57:21;;;;;;;7.63;7.30;;;8.20;99.90;;;;;;4159353;28;20045;-56
2022/01/03 05:59:23;;;;;;;7.70;7.50;;;8.20;99.90;;;;;;4163063;28;20521;-57
2022/01/03 06:01:26;;;;;;;7.18;6.97;;;8.20;99.90;;;;;;4160399;28;20045;-57
2022/01/03 06:03:34;;;;;;;7.18;6.88;;;8.30;99.90;;;;;;4162381;28;20116;-56
2022/01/03 06:07:38;;;;;;;6.25;6.05;;;8.30;99.90;;;;;;4163005;28;20030;-58
2022/01/03 06:09:40;;;;;;;6.38;6.28;;;8.30;99.90;;;;;;4159455;28;20041;-57
2022/01/03 06:11:42;;;;;;;5.90;5.75;;;8.30;99.90;;;;;;4163037;28;20076;-56
2022/01/03 06:13:44;;;;;;;6.20;6.00;;;8.30;99.90;;;;;;4159153;28;20042;-57
2022/01/03 06:15:46;;;;;;;7.03;6.78;;;8.30;99.90;;;;;;4161112;28;20052;-57
2022/01/03 06:17:48;;;;;;;7.53;7.28;;;8.30;99.90;;;;;;4158683;28;20075;-57
2022/01/03 06:19:50;;;;;;;7.20;6.97;;;8.30;99.90;;;;;;4148652;28;20383;-58
2022/01/03 06:21:53;;;;;;;6.90;6.70;;;8.40;99.90;;;;;;4157942;28;20045;-58
2022/01/03 06:23:55;;;;;;;7.47;7.25;;;8.30;99.90;;;;;;4161337;28;20076;-56
2022/01/03 06:25:57;;;;;;;8.93;8.32;;;8.30;99.90;;;;;;4160031;28;20022;-56
2022/01/03 06:27:59;;;;;;;7.65;7.40;;;8.30;99.90;;;;;;4152440;28;20457;-55
2022/01/03 06:30:02;;;;;;;9.23;8.73;;;8.30;99.90;;;;;;4156798;28;20065;-55
2022/01/03 06:32:04;;;;;;;9.68;9.27;;;8.30;99.90;;;;;;4162290;28;20048;-55
2022/01/03 06:34:07;;;;;;;8.65;8.48;;;8.30;99.90;;;;;;4158508;28;20073;-56
2022/01/03 06:36:09;;;;;;;8.35;7.95;;;8.30;99.90;;;;;;4163450;28;20506;-55
2022/01/03 06:38:11;;;;;;;8.15;7.90;;;8.30;99.90;;;;;;4157391;28;20041;-56
2022/01/03 06:40:13;;;;;;;7.82;7.43;;;8.30;99.90;;;;;;4161002;28;20112;-55
2022/01/03 06:42:15;;;;;;;7.35;7.05;;;8.30;99.90;;;;;;4159797;28;20034;-55
2022/01/03 06:44:17;;;;;;;8.15;7.85;;;8.30;99.90;;;;;;4160877;28;20045;-54
2022/01/03 06:46:19;;;;;;;7.55;7.35;;;8.30;99.90;;;;;;4159089;28;20570;-55
2022/01/03 06:48:21;;;;;;;6.55;6.45;;;8.30;99.90;;;;;;4161966;28;20046;-55
2022/01/03 06:50:24;;;;;;;7.00;6.90;;;8.30;99.90;;;;;;4156339;28;20049;-55
2022/01/03 06:52:26;;;;;;;6.03;5.82;;;8.30;99.90;;;;;;4148378;28;20084;-57
2022/01/03 06:54:30;;;;;;;6.15;6.05;;;8.30;99.90;;;;;;4159575;28;20469;-56
2022/01/03 06:56:33;;;;;;;7.68;7.28;;;8.30;99.90;;;;;;4155589;28;20072;-56
2022/01/03 06:58:36;;;;;;;7.18;6.88;;;8.30;99.90;;;;;;4159431;28;20056;-56
2022/01/03 07:00:38;;;;;;;6.63;6.43;;;8.30;99.90;;;;;;4162044;28;20125;-55
2022/01/03 07:02:43;;;;;;;7.57;7.30;;;8.30;99.90;;;;;;4158495;28;20044;-54
2022/01/03 07:04:45;;;;;;;7.30;7.20;;;8.40;99.90;;;;;;4161696;28;20041;-55
2022/01/03 07:06:47;;;;;;;7.85;7.18;;;8.40;99.90;;;;;;4160903;28;20049;-55
2022/01/03 07:08:49;;;;;;;7.95;7.63;;;8.30;99.90;;;;;;4161937;28;20072;-56
2022/01/03 07:10:51;;;;;;;8.65;8.35;;;8.30;99.90;;;;;;4158450;28;20052;-55
2022/01/03 07:12:54;;;;;;;8.85;8.23;;;8.30;99.90;;;;;;4146837;28;20080;-56
2022/01/03 07:19:24;;;;;;;9.05;8.65;;;8.30;99.90;;;;;;4160343;28;20061;-54
2022/01/03 07:21:28;;;;;;;7.90;7.70;;;8.30;99.90;;;;;;4158957;28;20074;-56
2022/01/03 07:23:30;;;;;;;8.73;8.20;;;8.30;99.90;;;;;;4162137;28;20038;-56
2022/01/03 07:25:33;;;;;;;8.25;7.97;;;8.30;99.90;;;;;;4150654;28;20485;-54
2022/01/03 07:27:35;;;;;;;8.30;7.93;;;8.30;99.90;;;;;;4163914;28;20057;-55
2022/01/03 07:29:39;;;;;;;8.75;8.43;;;8.30;99.90;;;;;;4158936;28;20046;-55
2022/01/03 07:31:41;;;;;;;8.77;8.48;;;8.40;99.90;;;;;;4160463;28;20087;-55
2022/01/03 07:33:44;;;;;;;7.07;6.88;;;8.30;99.90;;;;;;4159785;28;20484;-55
2022/01/03 07:35:46;;;;;;;8.10;7.85;;;8.40;99.90;;;;;;4162646;28;20050;-56
2022/01/03 07:37:48;;;;;;;8.13;7.80;;;8.30;99.90;;;;;;4158666;28;20044;-56
2022/01/03 07:39:52;;;;;;;8.90;8.60;;;8.30;99.90;;;;;;4162346;28;20452;-55
2022/01/03 07:41:54;;;;;;;11.98;11.15;;;8.30;99.90;;;;;;4159955;28;20042;-56
2022/01/03 07:43:56;;;;;;;11.18;10.65;;;8.40;99.90;;;;;;4159610;28;20501;-56
2022/01/03 07:45:58;;;;;;;9.95;9.35;;;8.40;99.90;;;;;;4161009;28;20033;-55
2022/01/03 07:48:00;;;;;;;12.80;12.13;;;8.40;99.90;;;;;;4152451;28;20126;-55
2022/01/03 07:50:04;;;;;;;12.85;12.15;;;8.40;99.90;;;;;;4151280;28;20037;-56
2022/01/03 07:52:06;;;;;;;11.20;10.65;;;8.40;99.90;;;;;;4162394;28;20080;-56
2022/01/03 07:54:08;;;;;;;9.82;9.45;;;8.40;99.90;;;;;;4159437;28;20402;-56
2022/01/03 07:56:10;;;;;;;8.45;8.15;;;8.40;99.90;;;;;;4162175;28;20132;-56
2022/01/03 07:58:16;;;;;;;9.52;8.98;;;8.40;99.90;;;;;;4160754;28;20371;-56
2022/01/03 08:00:18;;;;;;;8.05;7.85;;;8.40;99.90;;;;;;4163670;28;20044;-56
2022/01/03 08:02:20;;;;;;;8.95;8.50;;;8.30;99.90;;;;;;4159668;28;20129;-55
2022/01/03 08:04:22;;;;;;;11.23;10.50;;;8.30;99.90;;;;;;4165222;28;20508;-56
2022/01/03 08:06:25;;;;;;;13.20;12.20;;;8.30;99.90;;;;;;4161985;28;20041;-55
2022/01/03 08:08:27;;;;;;;13.60;12.82;;;8.30;99.90;;;;;;4164385;28;20509;-55
2022/01/03 08:10:29;;;;;;;9.88;9.18;;;8.30;99.90;;;;;;4160494;28;20472;-56
2022/01/03 08:12:31;;;;;;;10.27;9.68;;;8.30;99.90;;;;;;4164941;28;20756;-56
2022/01/03 08:14:34;;;;;;;10.27;9.77;;;8.30;99.90;;;;;;4162128;28;20041;-55
2022/01/03 08:16:36;;;;;;;11.07;10.07;;;8.30;99.90;;;;;;4163433;28;20073;-57
2022/01/03 08:18:38;;;;;;;10.93;10.40;;;8.30;99.90;;;;;;4159785;28;20037;-56
2022/01/03 08:20:40;;;;;;;10.10;9.52;;;8.30;99.90;;;;;;4164081;28;20037;-55
2022/01/03 08:22:42;;;;;;;11.85;10.88;;;8.40;99.90;;;;;;4161894;28;20497;-55
2022/01/03 08:24:45;;;;;;;13.55;12.25;;;8.30;99.90;;;;;;4162492;28;20495;-55
2022/01/03 08:26:49;;;;;;;;;;;8.40;99.90;;;;;;4161264;28;20064;-56
2022/01/03 08:28:52;;;;;;;11.63;10.65;;;8.40;99.90;;;;;;4167068;28;20344;-55
2022/01/03 08:30:53;;;;;;;;;;;8.40;99.90;;;;;;4162568;28;20049;-55
2022/01/03 08:32:55;;;;;;;11.90;11.13;;;8.40;99.90;;;;;;4163928;28;19975;-55
2022/01/03 08:34:58;;;;;;;11.68;10.95;;;8.40;99.90;;;;;;4161665;28;20064;-56
2022/01/03 08:37:00;;;;;;;9.68;9.27;;;8.50;99.90;;;;;;4164048;28;20454;-56
2022/01/03 08:39:02;;;;;;;9.85;8.98;;;8.50;99.90;;;;;;4161761;28;20060;-56
2022/01/03 08:41:05;;;;;;;7.28;7.07;;;8.60;99.90;;;;;;4163716;28;20033;-56
2022/01/03 08:43:07;;;;;;;9.02;8.75;;;8.60;99.90;;;;;;4161771;28;20627;-55
2022/01/03 08:45:09;;;;;;;8.80;8.45;;;8.70;99.90;;;;;;4163705;28;20041;-56
2022/01/03 08:47:11;;;;;;;8.90;8.65;;;8.70;99.90;;;;;;4159277;28;20044;-54
2022/01/03 08:49:14;;;;;;;10.05;9.75;;;8.70;99.90;;;;;;4163459;28;20072;-55
2022/01/03 08:51:16;;;;;;;11.38;10.77;;;8.70;99.90;;;;;;4160771;28;20072;-56
2022/01/03 08:53:21;;;;;;;11.68;10.98;;;8.70;99.90;;;;;;4163989;28;20044;-56
2022/01/03 08:55:23;;;;;;;9.88;9.40;;;8.70;99.90;;;;;;4159663;28;20046;-55
2022/01/03 08:57:25;;;;;;;11.07;9.95;;;8.70;99.90;;;;;;4163719;28;20056;-56
2022/01/03 08:59:27;;;;;;;10.70;10.20;;;8.70;99.90;;;;;;4158928;28;20068;-56
2022/01/03 09:01:29;;;;;;;10.75;10.23;;;8.70;99.90;;;;;;4165248;28;20462;-55
2022/01/03 09:03:32;;;;;;;10.85;10.27;;;8.70;99.90;;;;;;4162202;28;20493;-56
2022/01/03 09:05:35;;;;;;;9.98;9.57;;;8.70;99.90;;;;;;4147536;28;20050;-56
2022/01/03 09:07:37;;;;;;;8.40;7.90;;;8.70;99.90;;;;;;4160807;28;20125;-56
2022/01/03 09:09:40;;;;;;;9.27;8.85;;;8.80;99.90;;;;;;4162813;28;20068;-56
2022/01/03 09:11:42;;;;;;;;;;;8.80;99.90;;;;;;4160991;28;20056;-56
2022/01/03 09:13:44;;;;;;;20.50;18.75;;;8.80;99.90;;;;;;4169095;28;19924;-55
2022/01/03 09:15:48;;;;;;;10.88;10.40;;;8.80;99.90;;;;;;4161198;28;20112;-56
2022/01/03 09:17:50;;;;;;;7.60;7.30;;;8.90;99.90;;;;;;4162247;28;20080;-56
2022/01/03 09:19:54;;;;;;;8.65;8.00;;;8.90;99.90;;;;;;4161425;28;20084;-55
2022/01/03 09:22:07;;;;;;;8.43;8.05;;;9.00;99.90;;;;;;4178625;28;20504;-55
2022/01/03 09:24:32;;;;;;;8.55;8.32;;;9.00;99.90;;;;;;4164344;28;20061;-56
2022/01/03 09:28:58;;;;;;;8.25;7.88;;;8.90;99.90;;;;;;4163652;28;20049;-56
2022/01/03 09:31:00;;;;;;;7.70;7.50;;;9.00;99.90;;;;;;4159282;28;20041;-56
2022/01/03 09:33:03;;;;;;;9.90;9.48;;;8.90;99.90;;;;;;4163998;28;20103;-56
2022/01/03 09:35:06;;;;;;;8.93;8.70;;;9.00;99.90;;;;;;4161628;28;20136;-56
2022/01/03 09:37:08;;;;;;;10.90;10.50;;;9.00;99.90;;;;;;4162840;28;20120;-56
2022/01/03 09:39:10;;;;;;;10.85;10.40;;;9.00;99.90;;;;;;4162073;28;20128;-56
2022/01/03 09:41:13;;;;;;;9.88;9.38;;;9.00;99.90;;;;;;4161484;28;20048;-56
2022/01/03 09:43:17;;;;;;;10.13;9.52;;;9.00;99.90;;;;;;4160980;28;20068;-56
2022/01/03 09:45:19;;;;;;;15.00;13.75;;;9.00;99.90;;;;;;4162728;28;20040;-56
2022/01/03 09:47:22;;;;;;;8.95;8.65;;;9.00;99.90;;;;;;4161203;28;20136;-55
2022/01/03 09:49:28;;;;;;;8.07;7.88;;;9.00;99.90;;;;;;4161641;28;20049;-56
2022/01/03 09:51:31;;;;;;;9.20;8.65;;;9.10;99.90;;;;;;4159416;28;20438;-56
2022/01/03 09:53:35;;;;;;;9.95;9.43;;;9.10;99.90;;;;;;4162796;28;20048;-55
2022/01/03 09:55:38;;;;;;;10.27;9.68;;;9.20;99.90;;;;;;4160332;28;20065;-55
2022/01/03 09:57:44;;;;;;;9.00;8.50;;;9.20;99.90;;;;;;4162330;28;20073;-56
2022/01/03 09:59:47;;;;;;;9.13;8.65;;;9.10;99.90;;;;;;4158079;28;20064;-54
2022/01/03 10:01:49;;;;;;;8.13;7.72;;;9.20;99.90;;;;;;4164675;28;20033;-56
2022/01/03 10:03:51;;;;;;;6.93;6.72;;;9.20;99.90;;;;;;4161419;28;20203;-56
2022/01/03 10:05:55;;;;;;;8.05;7.57;;;9.20;99.90;;;;;;4147660;28;20123;-55
2022/01/03 10:07:57;;;;;;;9.55;9.13;;;9.20;99.90;;;;;;4159018;28;20065;-55
2022/01/03 10:10:00;;;;;;;12.25;11.18;;;9.20;99.90;;;;;;4147631;28;20125;-56
2022/01/03 10:12:02;;;;;;;11.40;10.70;;;9.20;99.90;;;;;;4161264;28;20065;-55
2022/01/03 10:14:05;;;;;;;10.93;10.38;;;9.20;99.90;;;;;;4154603;28;20049;-55
2022/01/03 10:16:07;;;;;;;8.70;8.27;;;9.20;99.90;;;;;;4160084;28;20033;-56
2022/01/03 10:18:17;;;;;;;8.05;7.47;;;9.30;99.90;;;;;;4160739;28;20049;-55
2022/01/03 10:20:19;;;;;;;8.55;8.15;;;9.30;99.90;;;;;;4159075;28;20453;-55
2022/01/03 10:22:27;;;;;;;7.15;6.85;;;9.30;99.90;;;;;;4161674;28;20041;-55
2022/01/03 10:24:37;;;;;;;7.70;7.45;;;9.30;99.90;;;;;;4161325;28;20041;-55
2022/01/03 10:26:42;;;;;;;12.02;11.23;;;9.40;99.90;;;;;;4161169;28;20048;-54
2022/01/03 10:28:44;;;;;;;10.38;9.60;;;9.40;99.90;;;;;;4162258;28;20564;-55
2022/01/03 10:30:46;;;;;;;10.18;9.50;;;9.50;99.90;;;;;;4160637;28;20124;-54
2022/01/03 10:32:51;;;;;;;8.73;8.27;;;9.50;99.90;;;;;;4161451;28;20068;-55
2022/01/03 10:34:55;;;;;;;7.20;6.82;;;9.50;99.90;;;;;;4158958;28;20042;-56
2022/01/03 10:36:58;;;;;;;7.50;7.05;;;9.50;99.90;;;;;;4162238;28;20136;-56
2022/01/03 10:39:22;;;;;;;8.93;8.43;;;9.50;99.90;;;;;;4159530;28;20530;-56
2022/01/03 10:41:25;;;;;;;8.05;7.85;;;9.50;99.90;;;;;;4162416;28;20049;-55
2022/01/03 10:43:27;;;;;;;9.23;8.73;;;9.60;99.90;;;;;;4159956;28;20144;-55
2022/01/03 10:45:34;;;;;;;9.07;8.57;;;9.60;99.90;;;;;;4149990;28;20046;-55
2022/01/03 10:47:37;;;;;;;10.50;9.77;;;9.60;99.90;;;;;;4153867;28;20037;-55
2022/01/03 10:49:39;;;;;;;;;;;9.60;99.90;;;;;;4151150;28;20469;-55
2022/01/03 10:51:41;;;;;;;6.80;6.50;;;9.60;99.90;;;;;;4152746;28;20007;-56
2022/01/03 10:53:43;;;;;;;7.57;7.38;;;9.60;99.90;;;;;;4152644;28;20072;-56
2022/01/03 10:55:45;;;;;;;7.80;7.32;;;9.60;99.90;;;;;;4152740;28;20592;-54
2022/01/03 10:57:49;;;;;;;8.40;8.00;;;9.70;99.90;;;;;;4161119;28;20083;-55
2022/01/03 10:59:51;;;;;;;6.97;6.78;;;9.70;99.90;;;;;;4158861;28;20045;-55